Time;durP1;ratioP1;P1;durP2;ratioP2;P2;SDS_P1;SDS_P2;PMS_P1;PMS_P2;Temp;Humidity;BMP_temperature;BMP_pressure;BME280_temperature;BME280_humidity;BME280_pressure;Samples;Min_cycle;Max_cycle;Signal;HPM_P1;HPM_P2
2022/05/25 00:04:18;;;;;;;6.10;2.87;;;;;;;15.03;85.02;100059.97;3484918;82;99363;-96
2022/05/25 00:09:19;;;;;;;5.60;3.30;;;;;;;14.88;85.13;100062.75;3488841;82;99154;-94
2022/05/25 00:14:21;;;;;;;5.60;3.15;;;;;;;14.81;85.43;100069.75;3462863;82;99318;-95
2022/05/25 00:24:41;;;;;;;6.35;3.77;;;;;;;14.57;86.04;100089.62;3452171;82;99339;-95
2022/05/25 00:29:41;;;;;;;6.20;3.60;;;;;;;14.41;85.96;100093.54;3484351;82;97996;-93
2022/05/25 00:34:42;;;;;;;6.43;3.27;;;;;;;14.26;86.25;100092.68;3475561;82;98393;-95
2022/05/25 00:39:43;;;;;;;7.27;3.30;;;;;;;14.16;86.57;100109.55;3498945;81;99064;-95
2022/05/25 00:44:44;;;;;;;6.93;4.10;;;;;;;14.03;86.48;100104.91;3471525;82;98947;-94
2022/05/25 00:49:45;;;;;;;6.20;3.57;;;;;;;13.91;86.84;100107.56;3491674;82;98857;-95
2022/05/25 00:55:01;;;;;;;6.87;3.50;;;;;;;13.80;87.05;100105.47;3449831;82;98917;-95
2022/05/25 01:00:25;;;;;;;6.65;3.70;;;;;;;13.73;86.68;100103.38;3457056;82;98891;-96
2022/05/25 01:05:34;;;;;;;7.15;3.70;;;;;;;13.65;87.53;100095.72;3496873;82;98683;-95
2022/05/25 01:11:24;;;;;;;6.95;3.75;;;;;;;13.58;87.31;100090.22;3468556;82;98303;-93
2022/05/25 01:16:43;;;;;;;8.07;5.00;;;;;;;13.52;87.15;100108.42;3427927;81;98803;-95
2022/05/25 01:21:52;;;;;;;9.10;3.60;;;;;;;13.48;87.58;100123.47;3456053;82;98829;-94
2022/05/25 01:27:33;;;;;;;26.25;16.67;;;;;;;13.39;88.20;100121.73;3474132;82;99415;-95
2022/05/25 01:33:07;;;;;;;26.68;15.45;;;;;;;13.31;88.13;100128.50;3470191;82;99574;-94
2022/05/25 01:38:26;;;;;;;16.20;9.23;;;;;;;13.29;88.25;100134.42;3471034;82;99213;-96
2022/05/25 01:43:38;;;;;;;12.65;6.65;;;;;;;13.25;88.47;100132.27;3469671;82;99439;-94
2022/05/25 01:48:42;;;;;;;9.87;5.00;;;;;;;13.24;88.99;100136.22;3487442;82;98966;-95
2022/05/25 01:53:47;;;;;;;8.93;5.28;;;;;;;13.27;89.20;100147.87;3466331;82;98854;-94
2022/05/25 01:58:53;;;;;;;10.47;5.77;;;;;;;13.28;89.37;100152.78;3501824;81;29286;-93
2022/05/25 02:09:44;;;;;;;10.75;5.78;;;;;;;13.33;91.83;100166.98;3482839;81;84886;-94
2022/05/25 02:15:06;;;;;;;8.88;5.12;;;;;;;13.33;90.11;100163.42;3474845;81;98983;-95
2022/05/25 02:20:21;;;;;;;10.08;4.22;;;;;;;13.34;90.87;100158.87;3448817;82;98816;-94
2022/05/25 02:25:28;;;;;;;9.18;4.60;;;;;;;13.37;90.17;100159.47;3483366;82;98959;-94
2022/05/25 02:30:34;;;;;;;8.95;4.83;;;;;;;13.30;90.34;100147.05;3488550;82;98916;-94
2022/05/25 02:35:37;;;;;;;7.70;3.77;;;;;;;13.41;90.51;100156.69;3485688;82;98218;-93
2022/05/25 02:40:40;;;;;;;7.62;4.03;;;;;;;13.44;90.35;100158.63;3459352;83;98514;-94
2022/05/25 02:45:42;;;;;;;6.67;4.03;;;;;;;13.45;91.17;100163.77;3502695;81;98686;-95
2022/05/25 02:50:43;;;;;;;7.97;4.58;;;;;;;13.46;91.36;100163.19;3451954;82;98947;-94
2022/05/25 02:55:44;;;;;;;6.73;3.70;;;;;;;13.48;90.77;100153.88;3475784;81;98048;-93
2022/05/25 03:00:45;;;;;;;9.97;4.10;;;;;;;13.48;91.64;100171.85;3467031;82;98872;-94
2022/05/25 03:05:52;;;;;;;8.20;4.93;;;;;;;13.46;91.10;100159.04;3480965;82;98856;-93
2022/05/25 03:10:53;;;;;;;7.00;4.00;;;;;;;13.45;91.16;100176.79;3465660;82;98815;-94
2022/05/25 03:16:03;;;;;;;9.97;4.67;;;;;;;13.43;91.71;100175.83;3506093;82;97800;-93
2022/05/25 03:21:04;;;;;;;7.93;4.73;;;;;;;13.45;91.53;100180.94;3462234;82;98793;-94
2022/05/25 03:26:06;;;;;;;7.70;4.43;;;;;;;13.44;92.21;100192.61;3438771;82;98881;-95
2022/05/25 03:31:07;;;;;;;7.22;3.62;;;;;;;13.42;92.12;100185.91;3493453;82;99105;-94
2022/05/25 03:36:10;;;;;;;7.33;4.30;;;;;;;13.40;91.53;100190.44;3513384;82;99058;-94
2022/05/25 03:41:11;;;;;;;7.40;3.87;;;;;;;13.36;92.48;100199.34;3490233;82;98889;-94
2022/05/25 03:46:11;;;;;;;7.73;4.10;;;;;;;13.31;92.37;100203.89;3478969;82;98773;-93
2022/05/25 03:51:12;;;;;;;8.57;3.83;;;;;;;13.30;92.11;100212.00;3458280;82;99331;-94
2022/05/25 03:56:13;;;;;;;8.43;4.20;;;;;;;13.29;92.18;100215.95;3493015;82;98888;-92
2022/05/25 04:01:15;;;;;;;14.18;7.10;;;;;;;13.27;92.07;100226.63;3465232;82;98979;-94
2022/05/25 04:06:15;;;;;;;9.77;4.93;;;;;;;13.25;92.29;100221.31;3462739;82;99423;-93
2022/05/25 04:11:17;;;;;;;9.23;4.83;;;;;;;13.24;92.68;100220.51;3499082;83;98555;-94
2022/05/25 04:16:17;;;;;;;7.10;3.70;;;;;;;13.26;92.96;100220.92;3443245;82;98688;-94
2022/05/25 04:21:18;;;;;;;7.83;4.73;;;;;;;13.31;92.89;100228.77;3467278;82;99157;-94
2022/05/25 04:26:19;;;;;;;10.25;5.37;;;;;;;13.40;93.37;100229.75;3512813;81;98889;-94
2022/05/25 04:31:20;;;;;;;10.38;6.35;;;;;;;13.50;93.59;100229.70;3470392;82;99147;-94
2022/05/25 04:36:21;;;;;;;10.33;6.57;;;;;;;13.63;93.89;100232.81;3466297;82;99043;-94
2022/05/25 04:41:22;;;;;;;9.47;5.80;;;;;;;13.75;94.46;100226.24;3447047;82;99217;-94
2022/05/25 04:46:24;;;;;;;8.33;5.03;;;;;;;13.91;94.52;100235.44;3471513;83;98692;-94
2022/05/25 04:51:25;;;;;;;9.95;6.15;;;;;;;14.07;95.22;100240.66;3405219;83;99720;-94
2022/05/25 05:01:45;;;;;;;11.15;6.08;;;;;;;14.43;95.11;100229.58;3491616;82;98554;-94
2022/05/25 05:06:47;;;;;;;9.90;6.17;;;;;;;14.66;94.72;100234.55;3499255;82;99261;-96
2022/05/25 05:11:48;;;;;;;9.30;5.73;;;;;;;14.64;94.20;100190.63;3433649;82;98922;-96
2022/05/25 05:17:02;;;;;;;9.80;5.83;;;;;;;15.08;94.12;100225.81;3499383;82;26593;-96
2022/05/25 05:22:04;;;;;;;9.30;5.70;;;;;;;15.32;93.63;100222.00;3465447;82;98750;-96
2022/05/25 05:27:06;;;;;;;9.60;4.93;;;;;;;15.55;93.17;100222.95;3472540;82;99592;-95
2022/05/25 05:32:10;;;;;;;9.43;5.07;;;;;;;15.81;92.87;100228.36;3504405;81;99003;-94
2022/05/25 05:37:22;;;;;;;8.87;5.30;;;;;;;15.94;91.71;100216.28;3470523;81;99017;-94
2022/05/25 05:42:25;;;;;;;9.23;5.60;;;;;;;16.13;91.29;100218.36;3422551;83;99173;-93
2022/05/25 05:47:35;;;;;;;12.03;5.97;;;;;;;16.30;90.59;100230.42;3428322;83;26520;-93
2022/05/25 05:52:37;;;;;;;7.80;5.27;;;;;;;16.38;89.59;100235.45;3411115;83;99089;-93
2022/05/25 05:57:39;;;;;;;10.53;5.70;;;;;;;16.48;88.73;100244.26;3528559;81;98757;-94
2022/05/25 06:02:39;;;;;;;9.53;5.65;;;;;;;16.54;88.56;100259.23;3448788;82;99175;-91
2022/05/25 06:07:41;;;;;;;11.27;6.10;;;;;;;16.59;87.65;100264.33;3433346;83;98948;-92
2022/05/25 06:12:42;;;;;;;11.70;6.10;;;;;;;16.65;87.03;100277.12;3476499;82;98997;-92
2022/05/25 06:23:03;;;;;;;10.77;6.13;;;;;;;16.72;86.34;100277.80;3467713;83;98750;-92
2022/05/25 06:28:04;;;;;;;10.85;7.22;;;;;;;16.81;86.46;100271.11;3493305;82;98808;-89
2022/05/25 06:33:07;;;;;;;12.65;7.25;;;;;;;16.93;86.15;100286.38;3446042;83;99085;-96
2022/05/25 06:38:08;;;;;;;9.60;6.30;;;;;;;17.13;86.33;100285.25;3496184;82;99098;-95
2022/05/25 06:43:09;;;;;;;10.80;6.83;;;;;;;17.35;86.15;100282.84;3519194;80;98884;-94
2022/05/25 06:48:12;;;;;;;10.20;6.53;;;;;;;17.72;84.49;100293.06;3518286;81;99084;-92
2022/05/25 06:53:12;;;;;;;10.03;6.10;;;;;;;17.72;84.49;100293.06;3524826;81;98768;-93
2022/05/25 06:58:13;;;;;;;10.30;6.20;;;;;;;18.00;84.89;100302.25;3533703;81;98936;-94
2022/05/25 07:03:15;;;;;;;11.17;6.17;;;;;;;18.29;84.28;100298.23;3495543;80;98809;-86
2022/05/25 07:08:16;;;;;;;10.33;6.67;;;;;;;18.64;83.67;100300.25;3529040;81;99110;-85
2022/05/25 07:13:17;;;;;;;10.57;6.37;;;;;;;18.76;82.44;100289.80;3516083;81;99291;-84
2022/05/25 07:18:18;;;;;;;13.37;6.90;;;;;;;18.92;81.65;100296.14;3534219;80;99005;-85
2022/05/25 07:23:19;;;;;;;11.00;7.27;;;;;;;19.09;81.28;100307.48;3560707;80;98578;-85
2022/05/25 07:28:20;;;;;;;11.33;6.50;;;;;;;19.24;80.35;100311.49;3501682;81;98822;-87
2022/05/25 07:33:26;;;;;;;11.07;7.00;;;;;;;19.37;79.66;100308.77;3510292;81;98980;-87
2022/05/25 07:38:28;;;;;;;;;;;;;;;19.58;78.94;100317.38;3516174;81;98989;-88
2022/05/25 07:43:33;;;;;;;13.35;7.40;;;;;;;19.66;76.67;100329.11;3514083;81;84858;-87
2022/05/25 07:48:34;;;;;;;11.57;6.97;;;;;;;19.95;77.97;100329.27;3551955;81;25788;-90
2022/05/25 07:58:57;;;;;;;10.60;6.67;;;;;;;20.18;75.24;100339.44;3540384;81;98783;-89
2022/05/25 08:09:18;;;;;;;9.60;5.83;;;;;;;20.43;74.95;100345.84;3509663;81;99099;-88
2022/05/25 08:14:19;;;;;;;8.13;5.60;;;;;;;20.41;74.11;100352.51;3519087;80;99179;-86
2022/05/25 08:19:19;;;;;;;12.40;6.40;;;;;;;20.42;72.79;100365.25;3487294;82;98847;-85
2022/05/25 08:24:20;;;;;;;12.27;6.53;;;;;;;20.46;71.80;100368.73;3547403;80;98933;-87
2022/05/25 08:29:25;;;;;;;12.03;7.70;;;;;;;20.48;70.95;100376.69;3495467;81;99209;-86
2022/05/25 08:34:26;;;;;;;10.67;6.30;;;;;;;20.29;70.08;100372.05;3526343;81;98863;-83
2022/05/25 08:39:27;;;;;;;10.35;4.50;;;;;;;20.10;69.64;100386.36;3515390;81;98911;-86
2022/05/25 08:44:28;;;;;;;8.90;4.90;;;;;;;19.89;69.70;100379.93;3489507;82;98696;-84
2022/05/25 08:49:32;;;;;;;8.90;4.53;;;;;;;19.89;69.33;100388.30;3476522;83;98930;-86
2022/05/25 08:54:36;;;;;;;9.90;6.70;;;;;;;19.92;69.69;100388.84;3471872;82;99174;-89
2022/05/25 08:59:57;;;;;;;12.13;6.62;;;;;;;19.90;69.10;100390.50;3513352;80;25983;-85
2022/05/25 09:05:04;;;;;;;10.48;6.35;;;;;;;19.78;69.72;100396.82;3545210;81;98861;-86
2022/05/25 09:10:07;;;;;;;13.38;7.17;;;;;;;19.83;69.51;100399.08;3503666;82;99419;-83
2022/05/25 09:15:30;;;;;;;11.73;7.10;;;;;;;19.86;69.51;100416.34;3518328;81;99054;-87
2022/05/25 09:20:49;;;;;;;15.38;6.80;;;;;;;19.84;69.78;100417.41;3513926;81;98964;-88
2022/05/25 09:25:49;;;;;;;13.75;7.62;;;;;;;19.96;69.87;100417.47;3540312;81;99000;-84
2022/05/25 09:30:56;;;;;;;14.53;8.88;;;;;;;19.91;69.45;100418.00;3502574;81;99371;-85
2022/05/25 09:36:17;;;;;;;14.68;8.55;;;;;;;19.72;69.63;100411.91;3534076;81;26980;-86
2022/05/25 09:41:27;;;;;;;19.60;9.95;;;;;;;19.48;70.16;100409.77;3525226;81;98840;-84
2022/05/25 09:46:33;;;;;;;12.63;7.45;;;;;;;19.41;70.75;100412.75;3526078;81;99099;-86
2022/05/25 09:51:45;;;;;;;11.57;6.87;;;;;;;19.39;70.98;100409.59;3520669;81;99243;-84
2022/05/25 09:56:55;;;;;;;14.00;7.43;;;;;;;19.34;70.89;100403.16;3497798;81;99008;-84
2022/05/25 10:01:57;;;;;;;12.33;6.55;;;;;;;19.30;70.73;100403.85;3468527;81;99038;-86
2022/05/25 10:06:58;;;;;;;12.05;6.10;;;;;;;19.30;70.22;100409.43;3521439;81;99087;-85
2022/05/25 10:12:05;;;;;;;13.07;8.63;;;;;;;19.35;70.57;100412.47;3527947;81;98668;-87
2022/05/25 10:17:17;;;;;;;12.45;7.95;;;;;;;19.46;70.22;100415.78;3551636;81;98970;-85
2022/05/25 10:22:44;;;;;;;15.00;9.13;;;;;;;19.57;70.39;100411.34;3484113;82;99678;-84
2022/05/25 10:27:46;;;;;;;13.38;8.65;;;;;;;19.66;70.61;100403.10;3530369;81;99510;-84
2022/05/25 10:38:13;;;;;;;12.53;7.15;;;;;;;19.80;69.09;100419.50;3525708;81;99406;-83
2022/05/25 10:43:28;;;;;;;12.13;6.75;;;;;;;19.83;68.70;100418.63;3495625;81;99105;-82
2022/05/25 10:48:53;;;;;;;11.93;6.87;;;;;;;19.89;67.88;100405.07;3506541;82;26572;-85
2022/05/25 11:00:06;;;;;;;9.35;5.50;;;;;;;20.28;66.85;100403.39;3519377;81;99098;-83
2022/05/25 11:05:30;;;;;;;8.20;5.17;;;;;;;20.62;66.48;100395.81;3512730;82;98965;-85
2022/05/25 11:10:39;;;;;;;9.53;5.80;;;;;;;20.92;65.46;100390.48;3534429;81;98640;-86
2022/05/25 11:16:04;;;;;;;10.15;5.78;;;;;;;21.14;65.21;100388.57;3495676;81;98779;-84
2022/05/25 11:21:29;;;;;;;9.20;5.90;;;;;;;21.49;64.64;100401.41;3507031;81;99077;-87
2022/05/25 11:27:01;;;;;;;10.15;5.25;;;;;;;21.45;62.04;100397.15;3542572;80;98781;-82
2022/05/25 11:32:15;;;;;;;10.90;5.92;;;;;;;21.43;63.25;100392.63;3534058;81;99161;-83
2022/05/25 11:37:55;;;;;;;10.48;6.12;;;;;;;21.50;63.00;100388.97;3512331;81;99319;-82
2022/05/25 11:43:14;;;;;;;10.35;6.42;;;;;;;21.67;62.60;100396.59;3547481;81;98965;-85
2022/05/25 11:49:06;;;;;;;10.53;6.35;;;;;;;21.48;62.12;100392.05;3486100;81;98803;-84
2022/05/25 11:54:45;;;;;;;9.43;5.25;;;;;;;21.30;62.34;100400.28;3513557;80;98791;-85
2022/05/25 12:00:22;;;;;;;8.90;4.60;;;;;;;21.09;62.82;100393.97;3498484;81;98633;-85
2022/05/25 12:05:43;;;;;;;12.10;4.95;;;;;;;21.12;62.61;100388.86;3491484;81;98699;-84
2022/05/25 12:10:49;;;;;;;11.10;4.75;;;;;;;20.85;62.17;100399.69;3505780;81;99088;-83
2022/05/25 12:16:16;;;;;;;9.10;5.40;;;;;;;20.46;62.63;100403.68;3513903;81;98975;-84
2022/05/25 12:21:23;;;;;;;10.23;4.42;;;;;;;19.99;65.13;100429.14;3471606;81;99718;-89
2022/05/25 12:26:29;;;;;;;9.83;3.08;;;;;;;19.20;68.71;100468.44;3527508;80;99833;-90
2022/05/25 12:31:36;;;;;;;8.03;3.10;;;;;;;18.52;70.29;100487.67;3528463;81;99132;-95
2022/05/25 12:36:38;;;;;;;8.43;2.70;;;;;;;17.89;71.99;100479.09;3502869;80;25960;-93
2022/05/25 12:41:40;;;;;;;5.33;1.90;;;;;;;17.64;73.82;100460.63;3545690;81;98872;-92
2022/05/25 12:52:41;;;;;;;6.17;2.63;;;;;;;17.44;74.04;100418.06;3540486;80;99011;-89
2022/05/25 12:57:53;;;;;;;6.25;2.47;;;;;;;17.02;74.59;100414.53;3546356;80;99027;-90
2022/05/25 13:02:55;;;;;;;10.35;2.75;;;;;;;16.80;76.60;100403.55;3542520;81;98844;-90
2022/05/25 13:07:56;;;;;;;9.28;4.47;;;;;;;16.88;76.94;100401.62;3537735;81;99067;-88
2022/05/25 13:13:18;;;;;;;10.63;5.47;;;;;;;16.86;77.13;100397.70;3516247;81;99075;-92
2022/05/25 13:18:47;;;;;;;4.30;2.47;;;;;;;16.85;77.17;100397.52;3512224;82;99008;-90
2022/05/25 13:24:02;;;;;;;5.37;2.83;;;;;;;16.78;78.11;100409.52;3546739;81;98740;-95
2022/05/25 13:29:09;;;;;;;8.73;3.43;;;;;;;16.75;79.01;100406.20;3528633;81;98738;-88
2022/05/25 13:34:17;;;;;;;7.42;3.37;;;;;;;16.73;80.76;100399.48;3543387;80;98840;-91
2022/05/25 13:39:22;;;;;;;6.65;3.10;;;;;;;16.88;81.28;100398.84;3555933;80;98457;-83
2022/05/25 13:44:29;;;;;;;6.10;2.90;;;;;;;17.05;81.90;100381.73;3307804;84;99054;-82
2022/05/25 13:49:47;;;;;;;6.27;2.60;;;;;;;17.33;80.49;100379.86;3368156;85;98827;-81
2022/05/25 13:55:02;;;;;;;3.40;1.90;;;;;;;17.73;80.77;100374.59;3372344;85;98807;-83
2022/05/25 14:00:30;;;;;;;3.50;1.83;;;;;;;17.94;77.76;100380.52;3358502;85;98704;-83
2022/05/25 14:05:50;;;;;;;4.00;2.00;;;;;;;18.15;77.29;100375.92;3370157;85;98765;-82
2022/05/25 14:11:00;;;;;;;5.90;2.42;;;;;;;18.36;76.03;100367.16;3376119;85;98839;-85
2022/05/25 14:16:14;;;;;;;4.90;2.40;;;;;;;18.56;75.83;100361.55;3344399;86;98861;-83
2022/05/25 14:21:54;;;;;;;3.23;1.80;;;;;;;18.77;74.94;100359.08;3350542;86;98835;-86
2022/05/25 14:27:03;;;;;;;6.30;2.65;;;;;;;19.02;74.43;100357.86;3372187;84;99347;-86
2022/05/25 14:32:27;;;;;;;5.12;2.47;;;;;;;19.32;73.73;100346.98;3371932;84;98809;-85
2022/05/25 14:37:33;;;;;;;7.37;3.12;;;;;;;19.56;72.02;100339.34;3397560;85;99251;-87
2022/05/25 14:42:50;;;;;;;;;;;;;;;19.71;70.80;100339.14;3354394;85;98839;-88
2022/05/25 14:47:59;;;;;;;5.12;2.70;;;;;;;19.76;70.07;100335.81;3395387;84;84993;-90
2022/05/25 14:53:14;;;;;;;5.15;2.75;;;;;;;19.80;70.20;100342.09;3335911;85;99028;-89
2022/05/25 14:58:25;;;;;;;7.70;2.83;;;;;;;19.76;68.42;100347.59;3367550;85;99034;-88
2022/05/25 15:03:40;;;;;;;7.53;3.23;;;;;;;19.59;68.70;100333.50;3382590;85;98991;-89
2022/05/25 15:08:46;;;;;;;8.60;2.50;;;;;;;19.53;68.35;100345.03;3365936;85;98913;-89
2022/05/25 15:19:06;;;;;;;4.80;2.30;;;;;;;19.26;67.37;100328.60;3359707;84;26204;-87
2022/05/25 15:24:12;;;;;;;3.03;1.93;;;;;;;19.15;68.13;100323.88;3389451;83;98847;-90
2022/05/25 15:29:26;;;;;;;8.23;3.00;;;;;;;19.12;67.90;100326.13;3378036;83;98695;-90
2022/05/25 15:34:27;;;;;;;7.60;3.17;;;;;;;19.15;67.95;100312.71;3352780;85;98910;-87
2022/05/25 15:39:28;;;;;;;8.83;3.23;;;;;;;19.20;67.81;100317.77;3322305;86;99138;-90
2022/05/25 15:44:29;;;;;;;8.57;3.43;;;;;;;19.19;68.18;100312.62;3339301;86;99650;-88
2022/05/25 15:49:30;;;;;;;7.73;2.70;;;;;;;19.34;68.53;100306.88;3355082;85;99213;-87
2022/05/25 15:54:30;;;;;;;6.97;2.90;;;;;;;19.42;67.79;100297.08;3401935;84;98576;-86
2022/05/25 15:59:32;;;;;;;7.33;2.90;;;;;;;19.37;67.54;100303.98;3420463;84;98714;-86
2022/05/25 16:04:36;;;;;;;6.90;3.33;;;;;;;19.29;67.53;100307.41;3355043;84;99211;-89
2022/05/25 16:09:43;;;;;;;6.33;3.50;;;;;;;19.22;67.54;100295.02;3416198;84;98911;-89
2022/05/25 16:14:49;;;;;;;5.55;3.00;;;;;;;19.18;68.24;100306.23;3360400;85;99240;-87
2022/05/25 16:19:48;;;;;;;8.05;3.20;;;;;;;19.13;68.46;100300.42;3351246;85;98837;-86
2022/05/25 16:24:49;;;;;;;7.93;3.87;;;;;;;19.08;68.85;100303.73;3400203;84;98921;-87
2022/05/25 16:29:50;;;;;;;6.73;3.93;;;;;;;18.97;68.99;100301.20;3405281;84;99109;-89
2022/05/25 16:34:51;;;;;;;11.27;4.47;;;;;;;18.94;69.45;100309.66;3351132;84;98794;-86
2022/05/25 16:39:53;;;;;;;5.80;3.27;;;;;;;18.91;69.85;100300.78;3372127;84;99519;-89
2022/05/25 16:44:54;;;;;;;6.03;2.83;;;;;;;18.90;70.17;100308.95;3365975;85;98847;-87
2022/05/25 16:49:55;;;;;;;7.57;3.50;;;;;;;18.81;70.42;100317.92;3369740;85;98961;-86
2022/05/25 16:54:56;;;;;;;7.53;3.80;;;;;;;18.84;71.06;100306.52;3317987;85;98982;-87
2022/05/25 16:59:57;;;;;;;7.93;4.00;;;;;;;18.87;72.02;100295.30;3363422;85;98761;-86
2022/05/25 17:04:59;;;;;;;7.83;4.00;;;;;;;18.98;72.40;100295.81;3405992;84;99113;-89
2022/05/25 17:10:01;;;;;;;7.40;3.93;;;;;;;19.01;71.85;100298.34;3404666;85;98820;-86
2022/05/25 17:15:03;;;;;;;8.38;3.02;;;;;;;18.94;71.79;100294.31;3378861;85;98903;-87
2022/05/25 17:25:26;;;;;;;6.70;3.03;;;;;;;18.80;71.50;100308.63;3389410;84;99347;-85
2022/05/25 17:30:28;;;;;;;9.33;3.63;;;;;;;18.71;71.38;100301.47;3384882;85;26351;-87
2022/05/25 17:35:29;;;;;;;8.03;3.02;;;;;;;18.59;71.37;100309.89;3371462;85;98780;-85
2022/05/25 17:45:37;;;;;;;10.32;3.30;;;;;;;18.46;71.55;100323.55;3380542;85;98887;-85
2022/05/25 17:50:38;;;;;;;6.73;2.97;;;;;;;18.35;71.83;100325.78;3381264;85;99322;-85
2022/05/25 17:55:42;;;;;;;8.00;4.23;;;;;;;18.25;72.43;100334.53;3366638;85;99319;-86
2022/05/25 18:00:43;;;;;;;16.15;8.33;;;;;;;18.15;72.43;100327.80;3388248;84;98539;-83
2022/05/25 18:05:45;;;;;;;18.93;9.30;;;;;;;18.06;73.25;100328.98;3369555;85;99984;-86
2022/05/25 18:10:46;;;;;;;12.30;6.43;;;;;;;17.95;73.59;100333.39;3382864;85;103638;-85
2022/05/25 18:15:47;;;;;;;8.17;4.43;;;;;;;17.84;74.48;100336.20;3384843;85;99553;-86
2022/05/25 18:20:48;;;;;;;8.20;3.87;;;;;;;17.74;74.91;100356.08;3370186;85;104659;-85
2022/05/25 18:25:49;;;;;;;8.30;3.00;;;;;;;17.64;75.19;100349.30;3374553;84;99661;-86
2022/05/25 18:30:51;;;;;;;11.70;5.17;;;;;;;17.57;75.62;100362.77;3343339;85;108038;-87
2022/05/25 18:35:52;;;;;;;8.47;4.40;;;;;;;17.53;75.66;100355.08;3345166;84;99009;-85
2022/05/25 18:40:53;;;;;;;8.63;2.90;;;;;;;17.43;76.70;100367.17;3366567;85;99027;-85
2022/05/25 18:45:55;;;;;;;5.40;3.00;;;;;;;17.27;74.93;100371.83;3405905;85;99161;-86
2022/05/25 18:50:56;;;;;;;6.20;2.40;;;;;;;17.16;74.78;100376.78;3375681;85;99087;-86
2022/05/25 18:55:57;;;;;;;3.87;2.30;;;;;;;17.00;74.59;100383.59;3377189;84;99240;-86
2022/05/25 19:00:59;;;;;;;5.60;2.57;;;;;;;16.88;74.90;100400.83;3408741;84;98805;-86
2022/05/25 19:06:00;;;;;;;5.23;2.50;;;;;;;16.75;74.81;100398.45;3387929;85;99210;-86
2022/05/25 19:11:01;;;;;;;5.53;2.40;;;;;;;16.60;74.96;100404.02;3362091;85;99236;-86
2022/05/25 19:16:05;;;;;;;4.47;2.40;;;;;;;16.45;75.04;100408.22;3366541;85;98978;-85
2022/05/25 19:21:14;;;;;;;6.05;2.17;;;;;;;16.28;74.83;100418.30;3373820;85;99260;-86
2022/05/25 19:26:19;;;;;;;5.17;2.30;;;;;;;16.11;75.29;100424.86;3405914;85;99323;-86
2022/05/25 19:31:21;;;;;;;7.15;2.67;;;;;;;15.94;75.49;100438.33;3388906;84;98872;-86
2022/05/25 19:36:27;;;;;;;4.63;2.37;;;;;;;15.71;76.18;100438.77;3405346;85;98925;-85
2022/05/25 19:41:30;;;;;;;7.05;2.85;;;;;;;15.41;76.70;100453.87;3400049;85;98925;-86
2022/05/25 19:46:32;;;;;;;6.40;2.57;;;;;;;15.20;77.24;100450.64;3383084;85;98856;-86
2022/05/25 19:51:34;;;;;;;6.37;2.58;;;;;;;15.05;77.67;100452.55;3390993;84;99319;-85
2022/05/25 19:56:35;;;;;;;8.13;2.30;;;;;;;14.82;77.92;100457.84;3383486;84;98884;-85
2022/05/25 20:01:36;;;;;;;6.47;2.63;;;;;;;14.63;78.44;100464.66;3407464;85;98909;-86
2022/05/25 20:06:36;;;;;;;6.10;3.10;;;;;;;14.40;78.83;100460.20;3399618;84;33288;-86
2022/05/25 20:11:38;;;;;;;7.92;3.27;;;;;;;14.23;79.27;100461.66;3374610;83;99060;-85
2022/05/25 20:16:39;;;;;;;8.77;4.33;;;;;;;14.05;79.77;100463.06;3374734;85;98933;-85
2022/05/25 20:21:40;;;;;;;6.57;3.50;;;;;;;13.86;79.87;100464.09;3379759;84;98857;-86
2022/05/25 20:26:41;;;;;;;7.20;3.40;;;;;;;13.71;80.32;100468.05;3390207;85;99251;-86
2022/05/25 20:31:43;;;;;;;6.27;3.17;;;;;;;13.58;80.57;100469.66;3381055;85;99305;-85
2022/05/25 20:36:50;;;;;;;9.40;4.13;;;;;;;13.41;80.84;100469.84;3412049;85;33349;-85
2022/05/25 20:41:51;;;;;;;6.50;3.10;;;;;;;13.30;80.98;100458.59;3379998;84;98793;-85
2022/05/25 20:46:53;;;;;;;7.67;3.60;;;;;;;13.14;81.39;100461.73;3405585;84;99082;-85
2022/05/25 20:51:54;;;;;;;6.53;3.30;;;;;;;13.03;81.59;100465.06;3387641;84;99661;-85
2022/05/25 20:56:55;;;;;;;8.90;4.20;;;;;;;12.97;82.19;100461.72;3402648;84;99482;-85
2022/05/25 21:02:01;;;;;;;7.20;3.53;;;;;;;12.87;82.94;100461.84;3379051;84;99295;-85
2022/05/25 21:07:00;;;;;;;6.30;3.23;;;;;;;12.79;82.94;100472.69;3375313;84;33791;-86
2022/05/25 21:12:00;;;;;;;7.63;3.80;;;;;;;12.73;83.38;100479.77;3410842;84;98801;-85
2022/05/25 21:17:07;;;;;;;10.13;4.43;;;;;;;12.70;83.54;100483.91;3381508;85;98710;-86
2022/05/25 21:22:05;;;;;;;9.55;4.85;;;;;;;12.66;84.13;100474.81;3382086;84;99071;-85
2022/05/25 21:27:06;;;;;;;10.50;4.37;;;;;;;12.62;84.78;100476.19;3370160;85;99346;-86
2022/05/25 21:37:28;;;;;;;11.70;5.53;;;;;;;12.60;85.04;100468.86;3391260;84;99348;-84
2022/05/25 21:42:29;;;;;;;11.93;6.47;;;;;;;12.52;86.08;100460.37;3383447;85;98940;-85
2022/05/25 21:52:50;;;;;;;12.20;5.55;;;;;;;12.47;86.55;100462.70;3380071;85;99213;-84
2022/05/25 21:57:52;;;;;;;11.90;6.93;;;;;;;12.39;86.32;100459.72;3393899;84;99603;-85
2022/05/25 22:02:55;;;;;;;11.05;5.85;;;;;;;12.33;87.03;100464.81;3385557;85;99062;-85
2022/05/25 22:07:57;;;;;;;9.80;5.03;;;;;;;12.20;86.90;100467.72;3396751;84;99359;-85
2022/05/25 22:12:58;;;;;;;12.87;5.97;;;;;;;12.08;87.09;100463.11;3398873;85;98896;-85
2022/05/25 22:17:59;;;;;;;9.33;5.40;;;;;;;12.02;86.90;100465.46;3386517;85;98806;-84
2022/05/25 22:23:00;;;;;;;8.97;5.00;;;;;;;11.92;87.15;100470.89;3363269;85;99059;-84
2022/05/25 22:28:02;;;;;;;11.57;6.37;;;;;;;11.82;87.15;100464.14;3373027;84;98825;-85
2022/05/25 22:33:04;;;;;;;11.17;6.13;;;;;;;11.74;87.51;100468.62;3395293;84;99768;-85
2022/05/25 22:38:05;;;;;;;9.57;4.63;;;;;;;11.64;88.06;100470.13;3370409;84;99074;-85
2022/05/25 22:43:06;;;;;;;12.00;5.97;;;;;;;11.52;88.22;100470.98;3381242;85;99297;-85
2022/05/25 22:48:07;;;;;;;12.00;5.80;;;;;;;11.40;88.09;100468.53;3393229;85;98848;-84
2022/05/25 22:53:08;;;;;;;12.70;5.53;;;;;;;11.33;88.24;100476.14;3365367;84;98930;-85
2022/05/25 22:58:09;;;;;;;11.87;5.63;;;;;;;11.27;88.46;100477.67;3363272;85;99541;-84
2022/05/25 23:03:10;;;;;;;8.60;5.00;;;;;;;11.20;88.80;100479.56;3389933;84;98996;-84
2022/05/25 23:08:11;;;;;;;10.00;4.93;;;;;;;11.13;88.67;100480.27;3377720;85;99225;-84
2022/05/25 23:13:12;;;;;;;10.20;5.20;;;;;;;11.06;88.96;100475.31;3376020;85;99004;-84
2022/05/25 23:18:13;;;;;;;10.97;5.70;;;;;;;10.99;89.60;100481.53;3415493;84;98850;-84
2022/05/25 23:23:14;;;;;;;9.80;5.27;;;;;;;10.89;89.65;100480.83;3389623;84;98839;-84
2022/05/25 23:33:38;;;;;;;8.03;4.67;;;;;;;10.76;90.27;100466.33;3357793;85;99270;-84
2022/05/25 23:38:39;;;;;;;9.53;5.37;;;;;;;10.69;90.58;100473.92;3366038;85;99147;-84
2022/05/25 23:43:46;;;;;;;11.35;6.05;;;;;;;10.64;90.37;100474.25;3357155;85;99228;-84
2022/05/25 23:48:49;;;;;;;12.03;6.70;;;;;;;10.59;90.54;100460.05;3371789;85;26528;-85
2022/05/25 23:53:51;;;;;;;12.57;6.97;;;;;;;10.55;91.03;100455.89;3376180;85;99382;-84
2022/05/25 23:58:54;;;;;;;12.50;6.83;;;;;;;10.43;90.43;100450.64;3364565;85;99225;-84
